createdAt,value
2022-10-07T00:02:08.131Z,15.70
2022-10-07T00:04:34.547Z,15.60
2022-10-07T00:07:01.017Z,15.60
2022-10-07T00:09:27.512Z,15.60
2022-10-07T00:11:54.928Z,15.60
2022-10-07T00:14:21.319Z,15.60
2022-10-07T00:16:47.809Z,15.60
2022-10-07T00:19:14.270Z,15.60
2022-10-07T00:21:40.911Z,15.50
2022-10-07T00:24:08.047Z,15.50
2022-10-07T00:26:35.915Z,15.50
2022-10-07T00:29:02.959Z,15.50
2022-10-07T00:31:30.549Z,15.50
2022-10-07T00:33:57.040Z,15.40
2022-10-07T00:36:28.005Z,15.40
2022-10-07T00:38:56.194Z,15.40
2022-10-07T00:41:24.412Z,15.40
2022-10-07T00:43:51.112Z,15.40
2022-10-07T00:46:36.737Z,15.30
2022-10-07T00:49:05.464Z,15.30
2022-10-07T00:51:33.807Z,15.30
2022-10-07T00:54:00.726Z,15.30
2022-10-07T00:56:28.002Z,15.30
2022-10-07T00:58:54.592Z,15.30
2022-10-07T01:01:21.425Z,15.30
2022-10-07T01:03:48.606Z,15.20
2022-10-07T01:06:15.113Z,15.20
2022-10-07T01:08:42.348Z,15.20
2022-10-07T01:11:21.150Z,15.20
2022-10-07T01:14:07.880Z,15.20
2022-10-07T01:16:34.387Z,15.20
2022-10-07T01:19:07.735Z,15.10
2022-10-07T01:21:41.129Z,15.10
2022-10-07T01:24:26.086Z,15.10
2022-10-07T01:26:57.316Z,15.10
2022-10-07T01:29:23.795Z,15.10
2022-10-07T01:32:03.572Z,15.00
2022-10-07T01:34:30.164Z,15.00
2022-10-07T01:36:58.117Z,15.00
2022-10-07T01:39:27.654Z,15.00
2022-10-07T01:41:54.481Z,14.90
2022-10-07T01:44:21.521Z,14.90
2022-10-07T01:46:48.082Z,14.90
2022-10-07T01:49:14.518Z,14.90
2022-10-07T01:51:41.627Z,14.90
2022-10-07T01:54:08.030Z,14.90
2022-10-07T01:56:53.148Z,14.90
2022-10-07T01:59:38.833Z,14.90
2022-10-07T02:02:05.234Z,14.80
2022-10-07T02:04:50.376Z,14.80
2022-10-07T02:07:22.950Z,14.80
2022-10-07T02:09:55.569Z,14.80
2022-10-07T02:12:25.123Z,14.80
2022-10-07T02:15:04.022Z,14.80
2022-10-07T02:17:33.365Z,14.70
2022-10-07T02:20:00.661Z,14.70
2022-10-07T02:22:28.473Z,14.70
2022-10-07T02:24:59.024Z,14.70
2022-10-07T02:27:28.146Z,14.70
2022-10-07T02:29:57.459Z,14.60
2022-10-07T02:32:25.436Z,14.60
2022-10-07T02:34:54.538Z,14.60
2022-10-07T02:37:25.734Z,14.60
2022-10-07T02:39:53.098Z,14.60
2022-10-07T02:42:25.320Z,14.60
2022-10-07T02:44:51.702Z,14.60
2022-10-07T02:47:21.768Z,14.50
2022-10-07T02:49:52.056Z,14.50
2022-10-07T02:52:19.568Z,14.50
2022-10-07T02:54:48.625Z,14.50
2022-10-07T02:57:17.101Z,14.50
2022-10-07T02:59:44.179Z,14.50
2022-10-07T03:02:13.341Z,14.40
2022-10-07T03:04:39.786Z,14.40
2022-10-07T03:07:06.257Z,14.40
2022-10-07T03:09:32.706Z,14.40
2022-10-07T03:11:59.160Z,14.40
2022-10-07T03:14:25.702Z,14.40
2022-10-07T03:16:52.746Z,14.40
2022-10-07T03:19:19.193Z,14.40
2022-10-07T03:21:45.626Z,14.30
2022-10-07T03:24:12.149Z,14.30
2022-10-07T03:26:38.545Z,14.30
2022-10-07T03:29:05.537Z,14.30
2022-10-07T03:31:32.030Z,14.30
2022-10-07T03:33:58.629Z,14.30
2022-10-07T03:36:25.157Z,14.30
2022-10-07T03:38:51.868Z,14.30
2022-10-07T03:41:19.206Z,14.20
2022-10-07T03:43:45.837Z,14.20
2022-10-07T03:46:12.504Z,14.20
2022-10-07T03:48:38.964Z,14.20
2022-10-07T03:51:05.706Z,14.20
2022-10-07T03:53:32.159Z,14.20
2022-10-07T03:55:58.652Z,14.20
2022-10-07T03:58:25.809Z,14.20
2022-10-07T04:00:52.250Z,14.20
2022-10-07T04:03:18.879Z,14.10
2022-10-07T04:05:55.517Z,14.10
2022-10-07T04:08:21.997Z,14.10
2022-10-07T04:10:48.402Z,14.10
2022-10-07T04:13:14.832Z,14.10
2022-10-07T04:15:41.236Z,14.10
2022-10-07T04:18:10.276Z,14.10
2022-10-07T04:20:39.850Z,14.10
2022-10-07T04:23:06.489Z,14.10
2022-10-07T04:25:35.821Z,14.10
2022-10-07T04:28:04.045Z,14.10
2022-10-07T04:30:34.602Z,14.10
2022-10-07T04:33:04.210Z,14.10
2022-10-07T04:35:30.768Z,14.10
2022-10-07T04:37:57.299Z,14.00
2022-10-07T04:40:24.310Z,14.00
2022-10-07T04:43:09.358Z,14.00
2022-10-07T04:45:36.321Z,14.00
2022-10-07T04:48:05.674Z,14.00
2022-10-07T04:50:38.676Z,14.00
2022-10-07T04:53:09.240Z,14.00
2022-10-07T04:55:39.944Z,14.00
2022-10-07T04:58:06.833Z,14.00
2022-10-07T05:00:33.774Z,14.00
2022-10-07T05:03:00.294Z,14.00
2022-10-07T05:05:27.307Z,13.90
2022-10-07T05:07:54.409Z,14.00
2022-10-07T05:10:21.608Z,13.90
2022-10-07T05:12:49.653Z,13.90
2022-10-07T05:15:19.061Z,13.90
2022-10-07T05:17:45.883Z,13.90
2022-10-07T05:20:12.627Z,13.90
2022-10-07T05:22:39.476Z,13.90
2022-10-07T05:25:06.187Z,13.90
2022-10-07T05:27:32.601Z,13.90
2022-10-07T05:29:59.039Z,13.90
2022-10-07T05:32:25.937Z,13.90
2022-10-07T05:34:52.779Z,13.90
2022-10-07T05:37:19.249Z,13.90
2022-10-07T05:39:46.552Z,13.90
2022-10-07T05:42:13.711Z,13.90
2022-10-07T05:44:40.227Z,13.80
2022-10-07T05:47:06.674Z,13.80
2022-10-07T05:49:35.729Z,13.80
2022-10-07T05:52:02.774Z,13.80
2022-10-07T05:54:29.155Z,13.80
2022-10-07T05:56:55.641Z,13.80
2022-10-07T05:59:22.234Z,13.80
2022-10-07T06:01:48.756Z,13.80
2022-10-07T06:04:15.251Z,13.80
2022-10-07T06:06:41.704Z,13.80
2022-10-07T06:09:26.814Z,13.80
2022-10-07T06:12:11.947Z,13.70
2022-10-07T06:14:38.366Z,13.70
2022-10-07T06:17:04.914Z,13.70
2022-10-07T06:19:31.417Z,13.70
2022-10-07T06:21:57.896Z,13.70
2022-10-07T06:24:25.248Z,13.70
2022-10-07T06:26:55.338Z,13.70
2022-10-07T06:29:22.201Z,13.70
2022-10-07T06:31:48.676Z,13.70
2022-10-07T06:34:15.163Z,13.70
2022-10-07T06:36:42.377Z,13.70
2022-10-07T06:39:09.056Z,13.70
2022-10-07T06:41:35.592Z,13.70
2022-10-07T06:44:02.042Z,13.70
2022-10-07T06:46:28.570Z,13.70
2022-10-07T06:48:55.046Z,13.60
2022-10-07T06:51:21.993Z,13.60
2022-10-07T06:53:52.183Z,13.70
2022-10-07T06:56:18.649Z,13.70
2022-10-07T06:58:45.121Z,13.60
2022-10-07T07:01:12.604Z,13.60
2022-10-07T07:03:39.966Z,13.60
2022-10-07T07:06:07.886Z,13.60
2022-10-07T07:08:35.371Z,13.60
2022-10-07T07:11:30.304Z,13.60
2022-10-07T07:13:57.203Z,13.60
2022-10-07T07:16:27.060Z,13.60
2022-10-07T07:18:57.415Z,13.70
2022-10-07T07:21:24.791Z,13.70
2022-10-07T07:23:51.618Z,13.70
2022-10-07T07:26:18.532Z,13.80
2022-10-07T07:28:50.526Z,13.80
2022-10-07T07:31:16.990Z,13.80
2022-10-07T07:33:43.420Z,13.90
2022-10-07T07:36:16.487Z,14.00
2022-10-07T07:38:43.553Z,14.00
2022-10-07T07:41:11.032Z,14.10
2022-10-07T07:43:37.915Z,14.10
2022-10-07T07:46:05.072Z,14.10
2022-10-07T07:48:31.620Z,14.10
2022-10-07T07:50:58.056Z,14.10
2022-10-07T07:53:24.521Z,14.00
2022-10-07T07:55:57.239Z,14.00
2022-10-07T07:58:24.436Z,14.00
2022-10-07T08:01:17.825Z,14.00
2022-10-07T08:03:46.467Z,14.00
2022-10-07T08:06:13.690Z,14.00
2022-10-07T08:08:43.115Z,14.00
2022-10-07T08:11:10.458Z,14.00
2022-10-07T08:13:39.359Z,14.00
2022-10-07T08:16:05.997Z,14.00
2022-10-07T08:18:32.510Z,14.00
2022-10-07T08:21:00.301Z,14.00
2022-10-07T08:23:27.178Z,14.00
2022-10-07T08:25:54.805Z,14.00
2022-10-07T08:28:21.517Z,14.00
2022-10-07T08:30:48.077Z,14.10
2022-10-07T08:33:14.604Z,14.10
2022-10-07T08:35:41.042Z,14.20
2022-10-07T08:38:09.635Z,14.20
2022-10-07T08:40:45.814Z,14.20
2022-10-07T08:43:12.970Z,14.20
2022-10-07T08:45:39.463Z,14.20
2022-10-07T08:48:11.412Z,14.30
2022-10-07T08:51:01.006Z,14.30
2022-10-07T08:53:31.887Z,14.30
2022-10-07T08:56:04.075Z,14.30
2022-10-07T08:58:31.016Z,14.30
2022-10-07T09:01:07.507Z,14.30
2022-10-07T09:03:42.143Z,14.40
2022-10-07T09:06:10.601Z,14.40
2022-10-07T09:08:40.805Z,14.40
2022-10-07T09:11:20.023Z,14.40
2022-10-07T09:13:50.639Z,14.50
2022-10-07T09:16:19.788Z,14.50
2022-10-07T09:18:50.857Z,14.50
2022-10-07T09:21:23.562Z,14.50
2022-10-07T09:23:55.983Z,14.60
2022-10-07T09:26:22.676Z,14.60
2022-10-07T09:28:50.367Z,14.70
2022-10-07T09:31:17.045Z,14.70
2022-10-07T09:33:44.750Z,14.70
2022-10-07T09:36:12.340Z,14.70
2022-10-07T09:38:43.114Z,14.80
2022-10-07T09:41:15.409Z,14.80
2022-10-07T09:44:02.050Z,14.90
2022-10-07T09:46:54.912Z,14.90
2022-10-07T09:49:27.525Z,14.90
2022-10-07T09:51:59.772Z,15.00
2022-10-07T09:54:26.345Z,15.00
2022-10-07T09:56:56.800Z,15.10
2022-10-07T09:59:23.290Z,15.10
2022-10-07T10:01:50.816Z,15.20
2022-10-07T10:04:18.455Z,15.20
2022-10-07T10:06:46.154Z,15.20
2022-10-07T10:09:16.879Z,15.20
2022-10-07T10:11:46.066Z,15.30
2022-10-07T10:14:29.198Z,15.30
2022-10-07T10:16:55.729Z,15.30
2022-10-07T10:19:23.646Z,15.30
2022-10-07T10:21:56.316Z,15.40
2022-10-07T10:24:41.987Z,15.40
2022-10-07T10:27:17.034Z,15.50
2022-10-07T10:29:49.747Z,15.60
2022-10-07T10:32:25.395Z,15.60
2022-10-07T10:35:06.681Z,15.60
2022-10-07T10:37:33.254Z,15.70
2022-10-07T10:40:07.451Z,15.80
2022-10-07T10:42:48.117Z,15.90
2022-10-07T10:45:29.955Z,16.00
2022-10-07T10:48:15.115Z,15.90
2022-10-07T10:50:57.669Z,16.00
2022-10-07T10:53:24.346Z,16.10
2022-10-07T10:55:56.955Z,16.10
2022-10-07T10:58:28.293Z,16.10
2022-10-07T11:01:30.499Z,16.20
2022-10-07T11:04:13.589Z,16.20
2022-10-07T11:06:41.962Z,16.30
2022-10-07T11:09:14.896Z,16.40
2022-10-07T11:11:42.354Z,16.50
2022-10-07T11:14:21.082Z,16.60
2022-10-07T11:16:57.193Z,16.70
2022-10-07T11:19:25.519Z,16.80
2022-10-07T11:21:56.558Z,16.80
2022-10-07T11:24:28.565Z,16.80
2022-10-07T11:27:15.017Z,16.90
2022-10-07T11:29:48.361Z,17.00
2022-10-07T11:32:17.538Z,17.00
2022-10-07T11:34:52.181Z,17.00
2022-10-07T11:37:27.341Z,17.10
2022-10-07T11:39:53.773Z,17.10
2022-10-07T11:42:23.319Z,17.30
2022-10-07T11:44:52.630Z,17.30
2022-10-07T11:47:21.424Z,17.40
2022-10-07T11:49:55.768Z,17.50
2022-10-07T11:52:24.373Z,17.60
2022-10-07T11:54:53.859Z,17.60
2022-10-07T11:57:33.709Z,17.70
2022-10-07T12:00:04.805Z,17.60
2022-10-07T12:02:31.600Z,17.70
2022-10-07T12:05:01.891Z,17.70
2022-10-07T12:07:44.930Z,17.70
2022-10-07T12:10:18.330Z,17.80
2022-10-07T12:12:45.550Z,17.90
2022-10-07T12:15:24.546Z,18.00
2022-10-07T12:17:55.171Z,18.00
2022-10-07T12:20:44.858Z,18.00
2022-10-07T12:23:34.689Z,18.00
2022-10-07T12:26:03.183Z,18.10
2022-10-07T12:28:37.197Z,18.20
2022-10-07T12:31:03.706Z,18.20
2022-10-07T12:33:36.085Z,18.30
2022-10-07T12:36:31.099Z,18.30
2022-10-07T12:38:57.657Z,18.30
2022-10-07T12:41:25.250Z,18.30
2022-10-07T12:44:24.310Z,18.40
2022-10-07T12:46:52.687Z,18.50
2022-10-07T12:49:24.433Z,18.50
2022-10-07T12:51:53.766Z,18.50
2022-10-07T12:54:26.559Z,18.50
2022-10-07T12:56:53.134Z,18.60
2022-10-07T12:59:41.153Z,18.60
2022-10-07T13:02:17.404Z,18.60
2022-10-07T13:04:54.616Z,18.60
2022-10-07T13:07:39.964Z,18.60
2022-10-07T13:10:15.456Z,18.70
2022-10-07T13:12:48.285Z,18.70
2022-10-07T13:15:30.028Z,18.80
2022-10-07T13:17:56.437Z,18.80
2022-10-07T13:20:25.976Z,18.80
2022-10-07T13:22:52.630Z,18.90
2022-10-07T13:25:20.404Z,18.90
2022-10-07T13:27:52.123Z,18.90
2022-10-07T13:30:51.053Z,18.90
2022-10-07T13:33:21.833Z,19.00
2022-10-07T13:35:48.701Z,19.10
2022-10-07T13:38:22.047Z,19.10
2022-10-07T13:40:54.584Z,19.10
2022-10-07T13:43:21.791Z,19.00
2022-10-07T13:45:48.311Z,19.00
2022-10-07T13:48:16.079Z,19.00
2022-10-07T13:50:43.138Z,19.00
2022-10-07T13:53:26.214Z,19.10
2022-10-07T13:56:04.273Z,19.20
2022-10-07T13:58:32.790Z,19.20
2022-10-07T14:01:01.117Z,19.20
2022-10-07T14:03:27.640Z,19.10
2022-10-07T14:05:54.088Z,19.20
2022-10-07T14:08:21.966Z,19.20
2022-10-07T14:10:57.841Z,19.10
2022-10-07T14:13:24.363Z,19.20
2022-10-07T14:15:52.764Z,19.20
2022-10-07T14:18:19.315Z,19.20
2022-10-07T14:20:57.814Z,19.20
2022-10-07T14:23:28.247Z,19.30
2022-10-07T14:25:59.187Z,19.30
2022-10-07T14:28:25.675Z,19.20
2022-10-07T14:31:26.249Z,19.00
2022-10-07T14:34:30.550Z,19.00
2022-10-07T14:37:08.329Z,19.00
2022-10-07T14:39:37.657Z,18.90
2022-10-07T14:42:05.927Z,18.80
2022-10-07T14:44:32.448Z,18.80
2022-10-07T14:47:06.396Z,18.80
2022-10-07T14:49:33.109Z,18.70
2022-10-07T14:52:00.328Z,18.70
2022-10-07T14:54:26.959Z,18.70
2022-10-07T14:56:53.383Z,18.80
2022-10-07T14:59:19.856Z,18.90
2022-10-07T15:01:53.174Z,19.00
2022-10-07T15:04:19.733Z,19.00
2022-10-07T15:06:50.605Z,19.00
2022-10-07T15:09:21.225Z,19.00
2022-10-07T15:11:47.650Z,19.10
2022-10-07T15:14:14.141Z,19.10
2022-10-07T15:16:41.730Z,19.10
2022-10-07T15:19:09.317Z,19.10
2022-10-07T15:21:35.788Z,19.00
2022-10-07T15:24:02.255Z,19.00
2022-10-07T15:26:28.679Z,18.90
2022-10-07T15:28:58.681Z,19.00
2022-10-07T15:31:26.683Z,19.00
2022-10-07T15:33:57.174Z,18.90
2022-10-07T15:36:24.913Z,19.00
2022-10-07T15:38:51.378Z,19.00
2022-10-07T15:41:28.758Z,18.90
2022-10-07T15:43:56.490Z,18.90
2022-10-07T15:46:23.085Z,19.00
2022-10-07T15:48:49.529Z,19.00
2022-10-07T15:51:15.960Z,19.00
2022-10-07T15:53:42.362Z,18.60
2022-10-07T15:56:09.599Z,18.70
2022-10-07T15:58:36.109Z,18.70
2022-10-07T16:01:04.084Z,18.60
2022-10-07T16:03:35.467Z,18.40
2022-10-07T16:06:02.618Z,18.40
2022-10-07T16:08:29.599Z,18.50
2022-10-07T16:10:56.063Z,18.40
2022-10-07T16:13:23.161Z,18.30
2022-10-07T16:16:03.887Z,18.20
2022-10-07T16:18:36.699Z,18.10
2022-10-07T16:21:07.372Z,17.90
2022-10-07T16:23:34.694Z,17.80
2022-10-07T16:26:08.672Z,17.70
2022-10-07T16:28:53.772Z,17.80
2022-10-07T16:31:20.337Z,17.90
2022-10-07T16:33:50.994Z,18.10
2022-10-07T16:36:17.548Z,18.00
2022-10-07T16:38:44.174Z,18.10
2022-10-07T16:41:10.583Z,18.10
2022-10-07T16:43:37.012Z,17.70
2022-10-07T16:46:04.848Z,17.70
2022-10-07T16:48:32.129Z,17.80
2022-10-07T16:50:59.341Z,17.80
2022-10-07T16:53:26.990Z,17.80
2022-10-07T16:55:53.719Z,17.70
2022-10-07T16:58:20.339Z,17.80
2022-10-07T17:00:46.764Z,17.70
2022-10-07T17:03:13.227Z,17.70
2022-10-07T17:05:39.738Z,17.80
2022-10-07T17:08:06.592Z,17.70
2022-10-07T17:10:33.086Z,17.70
2022-10-07T17:12:59.493Z,17.60
2022-10-07T17:15:25.881Z,17.60
2022-10-07T17:17:52.734Z,17.60
2022-10-07T17:20:19.807Z,17.60
2022-10-07T17:22:46.271Z,17.60
2022-10-07T17:25:12.831Z,17.60
2022-10-07T17:27:39.273Z,17.50
2022-10-07T17:30:05.990Z,17.60
2022-10-07T17:32:32.412Z,17.60
2022-10-07T17:34:59.255Z,17.60
2022-10-07T17:37:26.707Z,17.60
2022-10-07T17:39:53.188Z,17.60
2022-10-07T17:42:19.631Z,17.60
2022-10-07T17:44:46.603Z,17.50
2022-10-07T17:47:13.825Z,17.50
2022-10-07T17:49:40.288Z,17.50
2022-10-07T17:52:06.736Z,17.50
2022-10-07T17:54:33.148Z,17.40
2022-10-07T17:56:59.588Z,17.40
2022-10-07T17:59:27.055Z,17.30
2022-10-07T18:01:53.669Z,17.30
2022-10-07T18:04:24.806Z,17.30
2022-10-07T18:06:51.768Z,17.20
2022-10-07T18:09:18.499Z,17.20
2022-10-07T18:12:03.801Z,17.20
2022-10-07T18:14:53.286Z,17.20
2022-10-07T18:17:20.559Z,17.20
2022-10-07T18:19:47.550Z,17.20
2022-10-07T18:22:14.012Z,17.20
2022-10-07T18:24:40.875Z,17.20
2022-10-07T18:27:07.338Z,17.20
2022-10-07T18:29:35.984Z,17.10
2022-10-07T18:32:02.477Z,17.10
2022-10-07T18:34:28.948Z,17.10
2022-10-07T18:36:56.869Z,17.10
2022-10-07T18:39:27.841Z,17.10
2022-10-07T18:41:54.314Z,17.10
2022-10-07T18:44:20.709Z,17.10
2022-10-07T18:46:48.513Z,17.00
2022-10-07T18:49:14.941Z,17.00
2022-10-07T18:51:41.396Z,17.00
2022-10-07T18:54:07.891Z,17.00
2022-10-07T18:56:38.438Z,17.00
2022-10-07T18:59:07.458Z,16.90
2022-10-07T19:01:34.030Z,16.90
2022-10-07T19:04:01.501Z,16.90
2022-10-07T19:06:28.841Z,16.90
2022-10-07T19:08:56.265Z,16.90
2022-10-07T19:11:23.098Z,16.90
2022-10-07T19:13:54.066Z,16.80
2022-10-07T19:16:23.405Z,16.80
2022-10-07T19:18:51.618Z,16.80
2022-10-07T19:21:21.100Z,16.80
2022-10-07T19:23:48.625Z,16.80
2022-10-07T19:26:20.920Z,16.70
2022-10-07T19:28:50.114Z,16.70
2022-10-07T19:31:23.354Z,16.70
2022-10-07T19:33:51.470Z,16.70
2022-10-07T19:36:19.008Z,16.70
2022-10-07T19:38:46.320Z,16.60
2022-10-07T19:41:16.505Z,16.60
2022-10-07T19:43:43.357Z,16.60
2022-10-07T19:46:10.322Z,16.60
2022-10-07T19:48:37.284Z,16.60
2022-10-07T19:51:05.103Z,16.60
2022-10-07T19:53:35.152Z,16.50
2022-10-07T19:56:02.728Z,16.50
2022-10-07T19:58:31.670Z,16.50
2022-10-07T20:01:05.599Z,16.50
2022-10-07T20:03:32.251Z,16.40
2022-10-07T20:06:05.418Z,16.40
2022-10-07T20:08:33.279Z,16.40
2022-10-07T20:11:03.432Z,16.40
2022-10-07T20:13:32.649Z,16.40
2022-10-07T20:16:04.860Z,16.30
2022-10-07T20:18:31.742Z,16.30
2022-10-07T20:20:59.103Z,16.30
2022-10-07T20:23:25.537Z,16.30
2022-10-07T20:25:52.019Z,16.30
2022-10-07T20:28:18.541Z,16.30
2022-10-07T20:30:45.034Z,16.30
2022-10-07T20:33:12.073Z,16.20
2022-10-07T20:35:39.560Z,16.30
2022-10-07T20:38:05.988Z,16.20
2022-10-07T20:40:50.938Z,16.20
2022-10-07T20:43:17.391Z,16.20
2022-10-07T20:45:59.351Z,16.10
2022-10-07T20:48:28.883Z,16.20
2022-10-07T20:50:56.123Z,16.10
2022-10-07T20:53:22.586Z,16.10
2022-10-07T20:55:49.097Z,16.10
2022-10-07T20:58:15.660Z,16.10
2022-10-07T21:00:42.095Z,16.10
2022-10-07T21:03:08.533Z,16.10
2022-10-07T21:05:36.791Z,16.10
2022-10-07T21:08:03.309Z,16.00
2022-10-07T21:10:29.740Z,16.00
2022-10-07T21:12:56.259Z,16.00
2022-10-07T21:15:22.707Z,16.00
2022-10-07T21:17:49.188Z,16.00
2022-10-07T21:20:15.653Z,16.00
2022-10-07T21:22:42.071Z,15.90
2022-10-07T21:25:12.050Z,15.90
2022-10-07T21:27:38.618Z,15.90
2022-10-07T21:30:05.433Z,15.90
2022-10-07T21:32:31.872Z,15.90
2022-10-07T21:34:58.346Z,15.90
2022-10-07T21:37:24.790Z,15.90
2022-10-07T21:39:51.476Z,15.90
2022-10-07T21:42:17.870Z,15.90
2022-10-07T21:44:44.356Z,15.90
2022-10-07T21:47:10.781Z,15.80
2022-10-07T21:49:37.203Z,15.80
2022-10-07T21:52:03.652Z,15.80
2022-10-07T21:54:30.428Z,15.80
2022-10-07T21:56:56.846Z,15.80
2022-10-07T21:59:23.845Z,15.80
2022-10-07T22:01:50.407Z,15.80
2022-10-07T22:04:17.892Z,15.80
2022-10-07T22:07:03.198Z,15.70
2022-10-07T22:09:29.778Z,15.70
2022-10-07T22:11:56.834Z,15.70
2022-10-07T22:14:23.601Z,15.70
2022-10-07T22:16:53.993Z,15.70
2022-10-07T22:19:20.490Z,15.70
2022-10-07T22:21:46.919Z,15.70
2022-10-07T22:24:14.186Z,15.70
2022-10-07T22:26:46.127Z,15.70
2022-10-07T22:29:13.887Z,15.70
2022-10-07T22:31:40.318Z,15.70
2022-10-07T22:34:06.789Z,15.70
2022-10-07T22:36:33.242Z,15.70
2022-10-07T22:38:59.909Z,15.70
2022-10-07T22:41:26.468Z,15.60
2022-10-07T22:43:53.447Z,15.60
2022-10-07T22:46:26.939Z,15.60
2022-10-07T22:48:56.196Z,15.60
2022-10-07T22:51:22.928Z,15.60
2022-10-07T22:53:54.362Z,15.60
2022-10-07T22:56:22.477Z,15.60
2022-10-07T22:58:50.850Z,15.60
2022-10-07T23:01:17.368Z,15.60
2022-10-07T23:03:44.205Z,15.60
2022-10-07T23:06:15.138Z,15.50
2022-10-07T23:08:41.558Z,15.60
2022-10-07T23:11:08.494Z,15.60
2022-10-07T23:13:36.095Z,15.60
2022-10-07T23:16:04.871Z,15.60
2022-10-07T23:18:32.159Z,15.60
2022-10-07T23:20:59.755Z,15.50
2022-10-07T23:23:26.416Z,15.50
2022-10-07T23:25:53.105Z,15.50
2022-10-07T23:28:19.786Z,15.50
2022-10-07T23:30:46.263Z,15.50
2022-10-07T23:33:13.633Z,15.50
2022-10-07T23:35:40.489Z,15.50
2022-10-07T23:38:07.447Z,15.50
2022-10-07T23:40:33.935Z,15.50
2022-10-07T23:43:00.342Z,15.50
2022-10-07T23:45:27.494Z,15.50
2022-10-07T23:47:53.909Z,15.50
2022-10-07T23:50:21.004Z,15.50
2022-10-07T23:52:47.922Z,15.50
2022-10-07T23:55:14.729Z,15.50
2022-10-07T23:57:41.155Z,15.50
